Time;durP1;ratioP1;P1;durP2;ratioP2;P2;SDS_P1;SDS_P2;PMS_P1;PMS_P2;Temp;Humidity;BMP_temperature;BMP_pressure;BME280_temperature;BME280_humidity;BME280_pressure;Samples;Min_cycle;Max_cycle;Signal;HPM_P1;HPM_P2
2022/02/11 00:00:02;;;;;;;;;;;22.50;34.00;;;;;;5034637;28;19912;-56
2022/02/11 00:02:18;;;;;;;;;;;22.50;34.00;;;;;;5041493;28;19905;-56
2022/02/11 00:05:22;;;;;;;;;;;22.50;34.10;;;;;;5038032;28;19905;-52
2022/02/11 00:07:46;;;;;;;;;;;22.50;34.00;;;;;;5043020;28;20268;-50
2022/02/11 00:10:11;;;;;;;;;;;22.50;34.00;;;;;;5039809;28;20022;-52
2022/02/11 00:12:37;;;;;;;;;;;22.40;34.00;;;;;;5045634;28;19996;-55
2022/02/11 00:17:50;;;;;;;;;;;22.40;33.90;;;;;;5048535;28;19921;-57
2022/02/11 00:20:16;;;;;;;;;;;22.40;33.90;;;;;;5039114;28;19905;-52
2022/02/11 00:22:42;;;;;;;;;;;22.40;33.90;;;;;;5045205;28;19921;-56
2022/02/11 00:25:08;;;;;;;;;;;22.40;33.90;;;;;;5038887;28;19909;-56
2022/02/11 00:33:32;;;;;;;;;;;22.40;33.90;;;;;;5047277;28;19904;-54
2022/02/11 00:37:51;;;;;;;;;;;22.40;33.80;;;;;;5049837;28;19916;-53
2022/02/11 01:03:59;;;;;;;;;;;22.30;33.70;;;;;;5046991;28;20309;-53
2022/02/11 01:06:25;;;;;;;;;;;22.30;33.70;;;;;;5037726;28;19932;-54
2022/02/11 01:08:52;;;;;;;;;;;22.30;33.70;;;;;;5047488;28;19923;-54
2022/02/11 01:11:43;;;;;;;;;;;22.30;33.70;;;;;;5051943;28;19920;-57
2022/02/11 01:14:08;;;;;;;;;;;22.30;33.70;;;;;;5046276;28;19909;-57
2022/02/11 01:16:43;;;;;;;;;;;22.30;33.60;;;;;;5041799;28;19905;-53
2022/02/11 01:19:36;;;;;;;;;;;22.30;33.60;;;;;;5046969;28;19909;-56
2022/02/11 01:27:17;;;;;;;;;;;22.30;33.60;;;;;;5037306;28;20386;-53
2022/02/11 01:30:54;;;;;;;;;;;22.30;33.60;;;;;;5049348;28;19917;-59
2022/02/11 01:37:40;;;;;;;;;;;22.30;33.50;;;;;;5053698;28;20354;-51
2022/02/11 02:27:54;;;;;;;;;;;22.20;33.20;;;;;;5039481;28;19912;-56
2022/02/11 02:59:04;;;;;;;;;;;22.10;33.10;;;;;;5040968;28;19916;-58
2022/02/11 03:53:31;;;;;;;;;;;21.90;34.00;;;;;;5053326;28;20339;-61
2022/02/11 04:55:38;;;;;;;;;;;21.70;33.40;;;;;;5048026;28;19916;-59
2022/02/11 05:00:28;;;;;;;;;;;21.80;33.50;;;;;;5044983;28;19928;-57
2022/02/11 05:02:57;;;;;;;;;;;21.70;33.40;;;;;;5036806;28;19905;-52
2022/02/11 05:05:22;;;;;;;;;;;21.80;33.50;;;;;;5040845;28;20003;-55
2022/02/11 05:07:48;;;;;;;;;;;21.80;33.50;;;;;;5038643;28;20367;-53
2022/02/11 05:10:14;;;;;;;;;;;21.70;33.50;;;;;;5048266;28;19950;-53
2022/02/11 05:12:41;;;;;;;;;;;21.70;33.50;;;;;;5037060;28;19920;-54
2022/02/11 05:15:09;;;;;;;;;;;21.70;33.50;;;;;;5039075;28;19904;-54
2022/02/11 05:17:35;;;;;;;;;;;21.70;33.50;;;;;;5036816;28;19913;-51
2022/02/11 05:20:01;;;;;;;;;;;21.70;33.40;;;;;;5042447;28;19919;-54
2022/02/11 05:22:26;;;;;;;;;;;21.70;33.40;;;;;;5050558;28;20047;-53
2022/02/11 05:24:52;;;;;;;;;;;21.70;33.40;;;;;;5037845;28;20602;-52
2022/02/11 05:27:18;;;;;;;;;;;21.70;33.40;;;;;;5053562;28;19978;-54
2022/02/11 05:29:43;;;;;;;;;;;21.70;33.40;;;;;;5053830;28;20022;-55
2022/02/11 05:32:09;;;;;;;;;;;21.70;33.40;;;;;;5048286;28;19904;-53
2022/02/11 05:34:35;;;;;;;;;;;21.70;33.40;;;;;;5039882;28;20335;-53
2022/02/11 05:37:00;;;;;;;;;;;21.70;33.40;;;;;;5050441;28;19904;-57
2022/02/11 05:39:26;;;;;;;;;;;21.70;33.40;;;;;;5025692;28;20223;-56
2022/02/11 05:41:51;;;;;;;;;;;21.70;33.40;;;;;;5050543;28;19915;-53
2022/02/11 05:44:17;;;;;;;;;;;21.70;33.40;;;;;;5052478;28;19962;-54
2022/02/11 05:46:43;;;;;;;;;;;21.70;33.30;;;;;;5044985;28;19917;-56
2022/02/11 05:49:08;;;;;;;;;;;21.70;33.30;;;;;;5039046;28;19913;-57
2022/02/11 05:51:34;;;;;;;;;;;21.70;33.30;;;;;;5039991;28;20012;-59
2022/02/11 05:54:00;;;;;;;;;;;21.70;33.40;;;;;;5045314;28;19944;-57
2022/02/11 05:56:25;;;;;;;;;;;21.70;33.30;;;;;;5043837;28;19912;-57
2022/02/11 05:58:51;;;;;;;;;;;21.70;33.30;;;;;;5053417;28;19917;-52
2022/02/11 06:01:16;;;;;;;;;;;21.60;33.90;;;;;;5052402;28;19944;-54
2022/02/11 06:03:42;;;;;;;;;;;21.60;33.30;;;;;;5048745;28;20034;-56
2022/02/11 06:06:08;;;;;;;;;;;21.60;33.30;;;;;;5040536;28;20279;-53
2022/02/11 06:08:33;;;;;;;;;;;21.60;33.30;;;;;;5054068;28;19923;-53
2022/02/11 06:10:59;;;;;;;;;;;21.60;33.30;;;;;;5038072;28;19932;-58
2022/02/11 06:13:25;;;;;;;;;;;21.60;33.30;;;;;;5041041;28;19932;-57
2022/02/11 06:15:51;;;;;;;;;;;21.60;33.30;;;;;;5051585;28;19998;-54
2022/02/11 06:18:16;;;;;;;;;;;21.60;33.30;;;;;;5019463;28;19905;-54
2022/02/11 06:20:42;;;;;;;;;;;21.60;33.30;;;;;;5035916;28;19905;-58
2022/02/11 06:23:08;;;;;;;;;;;21.60;33.30;;;;;;5041216;28;19919;-58
2022/02/11 06:25:34;;;;;;;;;;;21.60;33.30;;;;;;5041454;28;20227;-59
2022/02/11 06:28:00;;;;;;;;;;;21.60;33.30;;;;;;5038508;28;19913;-57
2022/02/11 06:30:26;;;;;;;;;;;21.60;33.30;;;;;;5049933;28;20201;-56
2022/02/11 06:32:52;;;;;;;;;;;21.60;33.30;;;;;;5046526;28;19905;-57
2022/02/11 06:35:18;;;;;;;;;;;21.60;33.30;;;;;;5048352;28;19909;-52
2022/02/11 06:37:45;;;;;;;;;;;21.60;33.30;;;;;;5044154;28;20327;-55
2022/02/11 06:40:12;;;;;;;;;;;21.50;33.20;;;;;;5045037;28;19905;-57
2022/02/11 06:42:38;;;;;;;;;;;21.60;33.30;;;;;;5044373;28;19986;-57
2022/02/11 06:45:04;;;;;;;;;;;21.50;33.90;;;;;;5036529;28;20355;-54
2022/02/11 06:47:29;;;;;;;;;;;21.50;33.20;;;;;;5039136;28;19925;-54
2022/02/11 06:49:55;;;;;;;;;;;21.50;33.20;;;;;;5035013;28;19915;-54
2022/02/11 06:52:20;;;;;;;;;;;21.50;33.20;;;;;;5043305;28;19905;-52
2022/02/11 06:54:46;;;;;;;;;;;21.50;33.20;;;;;;5037871;28;19909;-53
2022/02/11 06:57:12;;;;;;;;;;;21.50;33.10;;;;;;5037425;28;19908;-56
2022/02/11 06:59:38;;;;;;;;;;;21.50;33.20;;;;;;5036768;28;20555;-55
2022/02/11 07:02:05;;;;;;;;;;;21.50;33.10;;;;;;5045890;28;19931;-54
2022/02/11 07:04:30;;;;;;;;;;;21.50;33.10;;;;;;5036614;28;19905;-57
2022/02/11 07:06:56;;;;;;;;;;;21.50;33.10;;;;;;5050133;28;19904;-50
2022/02/11 07:09:22;;;;;;;;;;;21.50;33.10;;;;;;5035185;28;20283;-55
2022/02/11 07:11:47;;;;;;;;;;;21.50;33.10;;;;;;5039182;28;19995;-56
2022/02/11 07:14:13;;;;;;;;;;;21.50;33.10;;;;;;5039161;28;19955;-55
2022/02/11 07:16:39;;;;;;;;;;;21.50;33.20;;;;;;5042127;28;19905;-53
2022/02/11 07:19:04;;;;;;;;;;;21.40;33.10;;;;;;5044336;28;19905;-53
2022/02/11 07:21:30;;;;;;;;;;;21.50;33.20;;;;;;5034917;28;19905;-58
2022/02/11 07:23:55;;;;;;;;;;;21.50;33.20;;;;;;5051000;28;20312;-53
2022/02/11 07:26:21;;;;;;;;;;;21.40;33.10;;;;;;5045419;28;19904;-54
2022/02/11 07:28:47;;;;;;;;;;;21.40;33.20;;;;;;5039828;28;19912;-54
2022/02/11 07:31:12;;;;;;;;;;;21.40;33.20;;;;;;5054468;28;20008;-57
2022/02/11 07:33:38;;;;;;;;;;;21.40;33.10;;;;;;5058280;28;19909;-51
2022/02/11 07:36:04;;;;;;;;;;;21.40;33.20;;;;;;5050441;28;19912;-54
2022/02/11 07:38:31;;;;;;;;;;;21.40;33.20;;;;;;5054628;28;19916;-54
2022/02/11 07:40:56;;;;;;;;;;;21.40;33.20;;;;;;5054880;28;20014;-56
2022/02/11 07:43:24;;;;;;;;;;;21.40;33.10;;;;;;5051920;28;19971;-58
2022/02/11 07:45:50;;;;;;;;;;;21.40;33.20;;;;;;5052574;28;19924;-54
2022/02/11 07:48:18;;;;;;;;;;;21.40;33.20;;;;;;5052495;28;19916;-52
2022/02/11 07:50:44;;;;;;;;;;;21.40;33.20;;;;;;5051627;28;19995;-57
2022/02/11 07:53:09;;;;;;;;;;;21.40;33.20;;;;;;5054252;28;20102;-57
2022/02/11 07:55:35;;;;;;;;;;;21.40;33.20;;;;;;5052978;28;20331;-59
2022/02/11 07:58:01;;;;;;;;;;;21.40;33.10;;;;;;5053749;28;19919;-58
2022/02/11 08:00:27;;;;;;;;;;;21.40;33.10;;;;;;5053839;28;19912;-57
2022/02/11 08:02:52;;;;;;;;;;;21.40;33.10;;;;;;5049353;28;20370;-57
2022/02/11 08:05:18;;;;;;;;;;;21.40;33.10;;;;;;5052529;28;19970;-55
2022/02/11 08:07:44;;;;;;;;;;;21.40;33.10;;;;;;5035705;28;19913;-52
2022/02/11 08:10:10;;;;;;;;;;;21.40;33.20;;;;;;5042681;28;19905;-54
2022/02/11 08:12:36;;;;;;;;;;;21.40;33.20;;;;;;5048490;28;19978;-62
2022/02/11 08:15:05;;;;;;;;;;;21.40;33.20;;;;;;5031341;28;21100;-56
2022/02/11 08:17:30;;;;;;;;;;;21.50;33.30;;;;;;5052552;28;19955;-57
2022/02/11 08:19:56;;;;;;;;;;;21.60;33.40;;;;;;5052902;28;19943;-60
2022/02/11 08:22:22;;;;;;;;;;;21.70;33.40;;;;;;5048869;28;19927;-60
2022/02/11 08:24:47;;;;;;;;;;;21.70;33.40;;;;;;5045938;28;20243;-59
2022/02/11 08:27:14;;;;;;;;;;;21.90;33.50;;;;;;5060508;28;20240;-58
2022/02/11 08:29:43;;;;;;;;;;;21.90;33.60;;;;;;5044269;28;19908;-55
2022/02/11 08:32:09;;;;;;;;;;;22.00;33.50;;;;;;5055172;28;19940;-62
2022/02/11 08:34:35;;;;;;;;;;;22.10;33.50;;;;;;5051185;28;19909;-61
2022/02/11 08:37:01;;;;;;;;;;;22.10;33.40;;;;;;5044710;28;19930;-61
2022/02/11 08:39:26;;;;;;;;;;;22.20;33.40;;;;;;5038876;28;20049;-62
2022/02/11 08:41:53;;;;;;;;;;;22.30;33.30;;;;;;5053851;28;19905;-60
2022/02/11 08:44:19;;;;;;;;;;;22.40;33.30;;;;;;5041455;28;20052;-60
2022/02/11 08:46:45;;;;;;;;;;;22.40;33.20;;;;;;5044392;28;19912;-60
2022/02/11 08:49:11;;;;;;;;;;;22.50;33.10;;;;;;5029001;28;19919;-61
2022/02/11 08:51:37;;;;;;;;;;;22.60;33.00;;;;;;5044862;28;19924;-62
2022/02/11 08:54:04;;;;;;;;;;;22.60;33.00;;;;;;5045718;28;19999;-59
2022/02/11 08:56:30;;;;;;;;;;;22.70;32.90;;;;;;5054958;28;19905;-59
2022/02/11 08:58:56;;;;;;;;;;;22.70;32.70;;;;;;5048146;28;20302;-63
2022/02/11 09:01:22;;;;;;;;;;;22.80;32.70;;;;;;5037228;28;20351;-59
2022/02/11 09:03:47;;;;;;;;;;;22.80;32.60;;;;;;5040081;28;19909;-58
2022/02/11 09:06:13;;;;;;;;;;;22.90;32.50;;;;;;5041436;28;20283;-60
2022/02/11 09:08:40;;;;;;;;;;;23.00;32.50;;;;;;5044487;28;19912;-57
2022/02/11 09:11:08;;;;;;;;;;;23.00;32.40;;;;;;5051180;28;19916;-60
2022/02/11 09:13:34;;;;;;;;;;;23.00;32.30;;;;;;5046507;28;19956;-59
2022/02/11 09:16:00;;;;;;;;;;;23.10;32.30;;;;;;5044732;28;19959;-57
2022/02/11 09:18:26;;;;;;;;;;;23.10;32.20;;;;;;5048222;28;19909;-62
2022/02/11 09:20:52;;;;;;;;;;;23.20;32.20;;;;;;5038997;28;19967;-59
2022/02/11 09:23:20;;;;;;;;;;;23.20;32.10;;;;;;5038938;28;19938;-59
2022/02/11 09:25:46;;;;;;;;;;;23.30;32.10;;;;;;5055966;28;19904;-61
2022/02/11 09:28:11;;;;;;;;;;;23.30;32.00;;;;;;5053798;28;20011;-58
2022/02/11 09:30:37;;;;;;;;;;;23.30;31.90;;;;;;5050072;28;20422;-61
2022/02/11 09:33:03;;;;;;;;;;;23.30;31.90;;;;;;5055222;28;20240;-58
2022/02/11 09:35:29;;;;;;;;;;;23.40;31.90;;;;;;5056254;28;19916;-57
2022/02/11 09:37:55;;;;;;;;;;;23.40;31.80;;;;;;5056328;28;20001;-61
2022/02/11 09:40:21;;;;;;;;;;;23.40;31.80;;;;;;5048127;28;19915;-61
2022/02/11 09:42:47;;;;;;;;;;;23.40;31.70;;;;;;5055570;28;19905;-60
2022/02/11 09:45:14;;;;;;;;;;;23.50;31.70;;;;;;5056138;28;19912;-55
2022/02/11 09:47:40;;;;;;;;;;;23.50;31.60;;;;;;5054605;28;19908;-59
2022/02/11 09:50:06;;;;;;;;;;;23.50;31.60;;;;;;5056104;28;20331;-60
2022/02/11 09:52:38;;;;;;;;;;;23.50;31.50;;;;;;5044201;28;19920;-61
2022/02/11 09:57:48;;;;;;;;;;;23.50;31.50;;;;;;5042515;28;19948;-58
2022/02/11 10:00:14;;;;;;;;;;;23.50;31.50;;;;;;5036886;28;20346;-58
2022/02/11 10:02:50;;;;;;;;;;;23.50;31.40;;;;;;5043086;28;19905;-59
2022/02/11 10:05:20;;;;;;;;;;;23.50;31.40;;;;;;5035634;28;19912;-59
2022/02/11 10:07:46;;;;;;;;;;;23.50;31.30;;;;;;5036246;28;19932;-57
2022/02/11 10:10:15;;;;;;;;;;;23.40;31.20;;;;;;5035898;28;19909;-59
2022/02/11 10:12:42;;;;;;;;;;;23.40;31.20;;;;;;5035902;28;19911;-54
2022/02/11 10:15:18;;;;;;;;;;;23.40;31.20;;;;;;5054190;28;19971;-58
2022/02/11 10:17:44;;;;;;;;;;;23.40;31.10;;;;;;5054632;28;20311;-60
2022/02/11 10:20:09;;;;;;;;;;;23.30;31.10;;;;;;5036346;28;19927;-60
2022/02/11 10:22:35;;;;;;;;;;;23.30;31.00;;;;;;5036618;28;19966;-59
2022/02/11 10:25:01;;;;;;;;;;;23.30;31.00;;;;;;5038489;28;19904;-58
2022/02/11 10:27:28;;;;;;;;;;;23.20;30.90;;;;;;5038998;28;19923;-57
2022/02/11 10:29:58;;;;;;;;;;;23.20;30.90;;;;;;5049932;28;19909;-59
2022/02/11 10:32:44;;;;;;;;;;;23.20;30.90;;;;;;5035296;28;19905;-60
2022/02/11 10:35:14;;;;;;;;;;;23.20;30.90;;;;;;5049901;28;19905;-56
2022/02/11 10:37:58;;;;;;;;;;;23.20;30.90;;;;;;5052154;28;20232;-61
2022/02/11 10:40:31;;;;;;;;;;;23.20;30.80;;;;;;5038326;28;20247;-57
2022/02/11 10:42:57;;;;;;;;;;;23.10;30.70;;;;;;5040182;28;19999;-60
2022/02/11 10:45:37;;;;;;;;;;;23.10;30.70;;;;;;5055141;28;19962;-60
2022/02/11 10:48:13;;;;;;;;;;;23.10;30.70;;;;;;5049516;28;19917;-58
2022/02/11 10:50:40;;;;;;;;;;;23.10;30.70;;;;;;5044844;28;19909;-60
2022/02/11 10:53:05;;;;;;;;;;;23.10;30.70;;;;;;5063831;28;19912;-61
2022/02/11 10:55:31;;;;;;;;;;;23.00;30.60;;;;;;5049795;28;20279;-59
2022/02/11 10:57:59;;;;;;;;;;;23.00;30.60;;;;;;5048219;28;19912;-56
2022/02/11 11:00:25;;;;;;;;;;;23.00;30.60;;;;;;5052989;28;19948;-56
2022/02/11 11:02:51;;;;;;;;;;;23.00;30.60;;;;;;5027329;28;19940;-59
2022/02/11 11:05:17;;;;;;;;;;;23.00;30.60;;;;;;5052594;28;20337;-59
2022/02/11 11:07:43;;;;;;;;;;;23.00;30.50;;;;;;5047967;28;20239;-59
2022/02/11 11:10:10;;;;;;;;;;;23.00;30.50;;;;;;5043962;28;19958;-59
2022/02/11 11:12:37;;;;;;;;;;;22.90;30.40;;;;;;5037842;28;20004;-57
2022/02/11 11:15:03;;;;;;;;;;;23.00;30.50;;;;;;5044089;28;19931;-61
2022/02/11 11:17:30;;;;;;;;;;;22.90;30.50;;;;;;5051960;28;20003;-62
2022/02/11 11:19:56;;;;;;;;;;;22.90;30.60;;;;;;5035201;28;19915;-59
2022/02/11 11:22:27;;;;;;;;;;;22.90;30.60;;;;;;5051280;28;19935;-60
2022/02/11 11:25:00;;;;;;;;;;;22.90;30.70;;;;;;5052163;28;19962;-60
2022/02/11 11:27:42;;;;;;;;;;;22.90;30.80;;;;;;5048263;28;20398;-57
2022/02/11 11:30:27;;;;;;;;;;;22.90;30.90;;;;;;5025994;28;20287;-58
2022/02/11 11:33:05;;;;;;;;;;;22.80;30.90;;;;;;5035201;28;19915;-58
2022/02/11 11:35:30;;;;;;;;;;;22.80;30.90;;;;;;5046987;28;20008;-57
2022/02/11 11:38:12;;;;;;;;;;;22.80;30.90;;;;;;5053556;28;19992;-57
2022/02/11 11:40:38;;;;;;;;;;;22.80;30.90;;;;;;5034652;28;20004;-57
2022/02/11 11:43:13;;;;;;;;;;;22.80;30.90;;;;;;5045067;28;19908;-60
2022/02/11 11:45:42;;;;;;;;;;;22.80;30.80;;;;;;5053657;28;20590;-58
2022/02/11 11:48:14;;;;;;;;;;;22.80;30.80;;;;;;5038305;28;19928;-58
2022/02/11 11:50:41;;;;;;;;;;;22.80;30.80;;;;;;5053157;28;19909;-58
2022/02/11 11:53:26;;;;;;;;;;;22.80;30.80;;;;;;5051217;28;19991;-56
2022/02/11 11:55:52;;;;;;;;;;;22.80;30.70;;;;;;5049867;28;20513;-61
2022/02/11 11:58:50;;;;;;;;;;;22.70;30.60;;;;;;5042209;28;19908;-60
2022/02/11 12:01:19;;;;;;;;;;;22.80;30.70;;;;;;5009336;28;19924;-60
2022/02/11 12:04:03;;;;;;;;;;;22.70;30.60;;;;;;5044519;28;19924;-59
2022/02/11 12:06:31;;;;;;;;;;;22.80;30.60;;;;;;5046174;28;19916;-59
2022/02/11 12:08:57;;;;;;;;;;;22.70;30.50;;;;;;5052547;28;19931;-56
2022/02/11 12:11:23;;;;;;;;;;;22.70;30.50;;;;;;5051624;28;19905;-59
2022/02/11 12:13:48;;;;;;;;;;;22.70;30.60;;;;;;5048897;28;19951;-53
2022/02/11 12:16:14;;;;;;;;;;;22.70;30.70;;;;;;5046774;28;19995;-59
2022/02/11 12:18:42;;;;;;;;;;;22.80;30.80;;;;;;5046832;28;19955;-57
2022/02/11 12:21:08;;;;;;;;;;;22.80;30.80;;;;;;5037684;28;19909;-56
2022/02/11 12:29:05;;;;;;;;;;;22.80;30.70;;;;;;5052090;28;19936;-55
2022/02/11 12:31:31;;;;;;;;;;;22.80;30.70;;;;;;5046531;28;20304;-56
2022/02/11 12:34:10;;;;;;;;;;;22.80;30.70;;;;;;5045943;28;19908;-54
2022/02/11 12:36:37;;;;;;;;;;;22.80;30.70;;;;;;5019970;28;20277;-55
2022/02/11 12:39:02;;;;;;;;;;;22.80;31.20;;;;;;5037868;28;19905;-53
2022/02/11 12:42:04;;;;;;;;;;;22.80;31.40;;;;;;5040322;28;19909;-55
2022/02/11 12:44:30;;;;;;;;;;;22.80;31.60;;;;;;4985610;28;19917;-57
2022/02/11 12:46:59;;;;;;;;;;;22.90;31.60;;;;;;5029905;28;19999;-56
2022/02/11 12:49:25;;;;;;;;;;;22.90;31.60;;;;;;5040885;28;19912;-53
2022/02/11 12:51:52;;;;;;;;;;;22.90;31.60;;;;;;5056889;28;19912;-56
2022/02/11 12:54:19;;;;;;;;;;;22.80;31.40;;;;;;5055078;28;19916;-56
2022/02/11 12:56:49;;;;;;;;;;;22.90;31.50;;;;;;5056910;28;19904;-54
2022/02/11 12:59:15;;;;;;;;;;;22.80;31.40;;;;;;5055132;28;19912;-54
2022/02/11 13:01:41;;;;;;;;;;;22.80;31.60;;;;;;5043641;28;19909;-57
2022/02/11 13:04:07;;;;;;;;;;;22.80;31.70;;;;;;5038640;28;20251;-52
2022/02/11 13:06:33;;;;;;;;;;;22.80;31.80;;;;;;5055837;28;20018;-62
2022/02/11 13:09:05;;;;;;;;;;;22.80;31.90;;;;;;5038674;28;19924;-57
2022/02/11 13:11:31;;;;;;;;;;;22.80;32.10;;;;;;5055051;28;19947;-53
2022/02/11 13:14:07;;;;;;;;;;;22.90;32.30;;;;;;5054866;28;20338;-54
2022/02/11 13:16:34;;;;;;;;;;;22.90;32.30;;;;;;5054939;28;19966;-50
2022/02/11 13:19:10;;;;;;;;;;;22.90;32.20;;;;;;5054652;28;20014;-58
2022/02/11 13:21:35;;;;;;;;;;;23.00;32.20;;;;;;5035859;28;19913;-55
2022/02/11 13:24:03;;;;;;;;;;;23.00;32.10;;;;;;5037508;28;19905;-54
2022/02/11 13:26:29;;;;;;;;;;;22.90;32.00;;;;;;5037102;28;19920;-53
2022/02/11 13:28:56;;;;;;;;;;;22.90;31.90;;;;;;5037288;28;19913;-53
2022/02/11 13:31:22;;;;;;;;;;;22.90;31.90;;;;;;5055997;28;19959;-57
2022/02/11 13:34:11;;;;;;;;;;;22.90;31.90;;;;;;5046334;28;19905;-51
2022/02/11 13:36:37;;;;;;;;;;;22.90;32.10;;;;;;5044866;28;19909;-55
2022/02/11 13:39:02;;;;;;;;;;;22.90;32.20;;;;;;5056200;28;19905;-52
2022/02/11 13:41:29;;;;;;;;;;;22.90;32.20;;;;;;5047580;28;19908;-54
2022/02/11 13:43:59;;;;;;;;;;;22.90;32.30;;;;;;5037048;28;19932;-56
2022/02/11 13:46:29;;;;;;;;;;;22.90;32.30;;;;;;5030849;28;19967;-53
2022/02/11 13:48:56;;;;;;;;;;;22.90;32.30;;;;;;5043534;28;20004;-49
2022/02/11 13:51:23;;;;;;;;;;;22.90;32.20;;;;;;5047803;28;19952;-46
2022/02/11 13:53:52;;;;;;;;;;;22.90;32.20;;;;;;5039192;28;19913;-52
2022/02/11 13:56:25;;;;;;;;;;;22.90;32.10;;;;;;5056013;28;20012;-51
2022/02/11 13:59:09;;;;;;;;;;;22.80;32.00;;;;;;5045778;28;20224;-53
2022/02/11 14:01:35;;;;;;;;;;;22.80;31.90;;;;;;5054601;28;19999;-49
2022/02/11 14:04:07;;;;;;;;;;;22.80;31.90;;;;;;5051001;28;19913;-50
2022/02/11 14:06:36;;;;;;;;;;;22.80;32.00;;;;;;5055902;28;19904;-51
2022/02/11 14:09:03;;;;;;;;;;;22.80;32.00;;;;;;5035720;28;19909;-50
2022/02/11 14:11:33;;;;;;;;;;;22.80;32.00;;;;;;5035751;28;19966;-50
2022/02/11 14:14:07;;;;;;;;;;;22.80;31.90;;;;;;5049138;28;19908;-53
2022/02/11 14:16:33;;;;;;;;;;;22.80;31.90;;;;;;5039074;28;19999;-56
2022/02/11 14:18:59;;;;;;;;;;;22.80;31.90;;;;;;5051924;28;19958;-50
2022/02/11 14:21:24;;;;;;;;;;;22.80;31.80;;;;;;5049865;28;20312;-49
2022/02/11 14:23:50;;;;;;;;;;;22.70;31.70;;;;;;5035137;28;20240;-55
2022/02/11 14:26:16;;;;;;;;;;;22.70;31.70;;;;;;5036479;28;20238;-57
2022/02/11 14:28:41;;;;;;;;;;;22.70;31.60;;;;;;5048196;28;20239;-57
2022/02/11 14:31:07;;;;;;;;;;;22.70;31.60;;;;;;5054160;28;20260;-53
2022/02/11 14:33:33;;;;;;;;;;;22.70;31.50;;;;;;5046018;28;19991;-53
2022/02/11 14:35:59;;;;;;;;;;;22.70;31.50;;;;;;5049986;28;19904;-56
2022/02/11 14:38:25;;;;;;;;;;;22.60;31.50;;;;;;5053917;28;20219;-54
2022/02/11 14:43:34;;;;;;;;;;;22.60;31.40;;;;;;5054040;28;19915;-53
2022/02/11 14:46:00;;;;;;;;;;;22.60;31.30;;;;;;5053149;28;19909;-50
2022/02/11 14:48:26;;;;;;;;;;;22.60;31.30;;;;;;5054302;28;19958;-54
2022/02/11 14:50:51;;;;;;;;;;;22.60;31.30;;;;;;5048870;28;19909;-55
2022/02/11 14:53:17;;;;;;;;;;;22.60;31.30;;;;;;5035299;28;20684;-54
2022/02/11 14:55:43;;;;;;;;;;;22.60;31.30;;;;;;5049841;28;19905;-56
2022/02/11 14:58:08;;;;;;;;;;;22.60;31.30;;;;;;5041461;28;19916;-52
2022/02/11 15:00:34;;;;;;;;;;;22.60;31.20;;;;;;5046122;28;19912;-51
2022/02/11 15:03:00;;;;;;;;;;;22.60;31.20;;;;;;5054734;28;19996;-51
2022/02/11 15:05:26;;;;;;;;;;;22.60;31.20;;;;;;5053032;28;19918;-54
2022/02/11 15:07:53;;;;;;;;;;;22.60;31.20;;;;;;5037792;28;19924;-53
2022/02/11 15:10:20;;;;;;;;;;;22.60;31.10;;;;;;5045900;28;19969;-55
2022/02/11 15:12:45;;;;;;;;;;;22.60;31.10;;;;;;5053503;28;19916;-53
2022/02/11 15:15:11;;;;;;;;;;;22.60;31.10;;;;;;5046930;28;19904;-54
2022/02/11 15:17:37;;;;;;;;;;;22.60;31.00;;;;;;5051027;28;19916;-55
2022/02/11 15:20:03;;;;;;;;;;;22.60;31.00;;;;;;5042263;28;19936;-54
2022/02/11 15:22:29;;;;;;;;;;;22.60;30.90;;;;;;5047080;28;19917;-57
2022/02/11 15:24:57;;;;;;;;;;;22.60;31.20;;;;;;5045606;28;19912;-53
2022/02/11 15:27:23;;;;;;;;;;;22.60;31.40;;;;;;5035995;28;20058;-52
2022/02/11 15:29:49;;;;;;;;;;;22.60;31.30;;;;;;5042504;28;19917;-55
2022/02/11 15:32:14;;;;;;;;;;;22.70;31.30;;;;;;5045325;28;20319;-53
2022/02/11 15:34:40;;;;;;;;;;;22.70;31.30;;;;;;5036431;28;19920;-50
2022/02/11 15:37:06;;;;;;;;;;;22.70;31.30;;;;;;5051772;28;20675;-56
2022/02/11 15:39:33;;;;;;;;;;;22.70;31.20;;;;;;5043122;28;19913;-56
2022/02/11 15:41:59;;;;;;;;;;;22.70;31.20;;;;;;5033726;28;19909;-52
2022/02/11 15:44:24;;;;;;;;;;;22.60;31.10;;;;;;5049046;28;19970;-54
2022/02/11 15:46:50;;;;;;;;;;;22.60;31.10;;;;;;5049830;28;19916;-56
2022/02/11 15:49:16;;;;;;;;;;;22.60;31.10;;;;;;5049180;28;19959;-54
2022/02/11 15:51:41;;;;;;;;;;;22.60;31.10;;;;;;5048587;28;19905;-57
2022/02/11 15:54:07;;;;;;;;;;;22.60;31.00;;;;;;5054084;28;19905;-52
2022/02/11 15:56:32;;;;;;;;;;;22.60;31.00;;;;;;5047817;28;19915;-55
2022/02/11 15:58:58;;;;;;;;;;;22.60;31.00;;;;;;5041527;28;20032;-52
2022/02/11 16:01:24;;;;;;;;;;;22.60;31.00;;;;;;5047773;28;19909;-50
2022/02/11 16:03:49;;;;;;;;;;;22.60;31.00;;;;;;5048937;28;19982;-51
2022/02/11 16:06:15;;;;;;;;;;;22.50;31.00;;;;;;5045737;28;20698;-49
2022/02/11 16:08:41;;;;;;;;;;;22.50;31.00;;;;;;5040803;28;19987;-55
2022/02/11 16:11:07;;;;;;;;;;;22.50;30.90;;;;;;5048110;28;20009;-53
2022/02/11 16:13:32;;;;;;;;;;;22.50;30.90;;;;;;5052872;28;20227;-50
2022/02/11 16:15:58;;;;;;;;;;;22.50;30.90;;;;;;5045874;28;19966;-50
2022/02/11 16:18:24;;;;;;;;;;;22.50;30.90;;;;;;5046806;28;20008;-55
2022/02/11 16:20:50;;;;;;;;;;;22.50;31.00;;;;;;5045270;28;19904;-52
2022/02/11 16:23:17;;;;;;;;;;;22.50;30.90;;;;;;5041631;28;19905;-54
2022/02/11 16:25:43;;;;;;;;;;;22.50;30.90;;;;;;5047726;28;19920;-54
2022/02/11 16:28:10;;;;;;;;;;;22.50;30.90;;;;;;5042364;28;20003;-50
2022/02/11 16:30:36;;;;;;;;;;;22.40;30.90;;;;;;5037114;28;19935;-54
2022/02/11 16:33:02;;;;;;;;;;;22.40;30.90;;;;;;5049067;28;19920;-53
2022/02/11 16:35:27;;;;;;;;;;;22.40;30.80;;;;;;5052086;28;19916;-50
2022/02/11 16:37:53;;;;;;;;;;;22.40;30.80;;;;;;5051973;28;20012;-58
2022/02/11 16:40:19;;;;;;;;;;;22.40;30.80;;;;;;5045646;28;19956;-55
2022/02/11 16:42:44;;;;;;;;;;;22.40;30.80;;;;;;5047970;28;19904;-57
2022/02/11 16:45:10;;;;;;;;;;;22.40;30.80;;;;;;5055199;28;20046;-56
2022/02/11 16:47:36;;;;;;;;;;;22.40;30.80;;;;;;5044712;28;19923;-57
2022/02/11 16:50:03;;;;;;;;;;;22.40;30.80;;;;;;5054798;28;19904;-56
2022/02/11 16:52:31;;;;;;;;;;;22.40;30.80;;;;;;5052540;28;19967;-54
2022/02/11 16:54:57;;;;;;;;;;;22.40;30.80;;;;;;5048864;28;19913;-52
2022/02/11 16:57:22;;;;;;;;;;;22.40;30.80;;;;;;5052643;28;19904;-57
2022/02/11 16:59:50;;;;;;;;;;;22.30;30.70;;;;;;5053415;28;19923;-52
2022/02/11 17:02:16;;;;;;;;;;;22.30;30.70;;;;;;5047375;28;19916;-57
2022/02/11 17:04:42;;;;;;;;;;;22.40;30.80;;;;;;5047068;28;19905;-54
2022/02/11 17:07:08;;;;;;;;;;;22.30;31.30;;;;;;5045652;28;20397;-56
2022/02/11 17:09:34;;;;;;;;;;;22.30;30.70;;;;;;5043302;28;19917;-52
2022/02/11 17:11:59;;;;;;;;;;;22.30;30.70;;;;;;5051562;28;19966;-53
2022/02/11 17:14:25;;;;;;;;;;;22.30;30.70;;;;;;5040229;28;19945;-55
2022/02/11 17:16:51;;;;;;;;;;;22.30;30.60;;;;;;5040025;28;19916;-52
2022/02/11 17:19:17;;;;;;;;;;;22.30;30.60;;;;;;5042559;28;19919;-57
2022/02/11 17:21:42;;;;;;;;;;;22.30;30.60;;;;;;5045294;28;20332;-52
2022/02/11 17:24:08;;;;;;;;;;;22.30;30.70;;;;;;5043239;28;19998;-59
2022/02/11 17:26:34;;;;;;;;;;;22.30;30.70;;;;;;5049699;28;19917;-57
2022/02/11 17:29:00;;;;;;;;;;;22.30;30.70;;;;;;5043619;28;19925;-50
2022/02/11 17:31:25;;;;;;;;;;;22.30;30.70;;;;;;5031372;28;19913;-57
2022/02/11 17:33:51;;;;;;;;;;;22.30;30.70;;;;;;5050050;28;20335;-54
2022/02/11 17:36:17;;;;;;;;;;;22.30;30.70;;;;;;5048408;28;20008;-53
2022/02/11 17:38:43;;;;;;;;;;;22.30;30.70;;;;;;5042446;28;19908;-56
2022/02/11 17:41:08;;;;;;;;;;;22.30;30.70;;;;;;5044196;28;19904;-55
2022/02/11 17:43:34;;;;;;;;;;;22.30;30.70;;;;;;5045901;28;19970;-53
2022/02/11 17:46:00;;;;;;;;;;;22.20;30.60;;;;;;5047251;28;19970;-53
2022/02/11 17:48:26;;;;;;;;;;;22.20;30.60;;;;;;5053195;28;20220;-54
2022/02/11 17:50:51;;;;;;;;;;;22.20;30.60;;;;;;5028782;28;20308;-54
2022/02/11 17:53:17;;;;;;;;;;;22.20;30.60;;;;;;5050343;28;19909;-53
2022/02/11 17:55:43;;;;;;;;;;;22.20;30.60;;;;;;5047982;28;19904;-54
2022/02/11 17:58:08;;;;;;;;;;;22.20;30.60;;;;;;5047824;28;19905;-48
2022/02/11 18:00:34;;;;;;;;;;;22.20;30.60;;;;;;5051494;28;19912;-49
2022/02/11 18:03:00;;;;;;;;;;;22.20;30.60;;;;;;5025743;28;19912;-55
2022/02/11 18:05:25;;;;;;;;;;;22.20;30.60;;;;;;5052975;28;19904;-53
2022/02/11 18:07:51;;;;;;;;;;;22.20;30.60;;;;;;5050137;28;19908;-53
2022/02/11 18:10:17;;;;;;;;;;;22.20;30.60;;;;;;5044024;28;20025;-52
2022/02/11 18:12:44;;;;;;;;;;;22.20;30.60;;;;;;5037133;28;19916;-54
2022/02/11 18:15:10;;;;;;;;;;;22.10;30.60;;;;;;5044301;28;19966;-54
2022/02/11 18:17:36;;;;;;;;;;;22.10;30.50;;;;;;5040181;28;19941;-52
2022/02/11 18:20:03;;;;;;;;;;;22.20;30.50;;;;;;5049728;28;20017;-52
2022/02/11 18:22:29;;;;;;;;;;;22.20;30.50;;;;;;5036307;28;20240;-53